• Join FlightAware (Why Join?)
  • Login
  • US Flag 
09:40PM EDT


 

Airport Tracker/Info


-or-


 

Live Flight TrackerFlight Track Log ✈ N966QS ✈ 25-Apr-2013 ✈ KMDW - KTEB

Flight Track Log - Related Links

Times and Time Zones

All times are in EDT time to prevent confusion due to time zone crossing. See the N966QS flight status page for this flight to view local times or setup timezone preferences in your user account.

Time Position Orientation Groundspeed Altitude Reporting Facility
EDT Latitude Longitude Course Direction KTS MPH feet Rate Location/Type
01:05PM 41.8000 -87.8000 90° East 198 228 2,700  Level Chicago TRACON
01:06PM 41.8000 -87.7167 90° East 248 285 3,200 1,440 Climbing Chicago TRACON
01:07PM 41.7842 -87.6222 103° East 266 306 5,700 3,060 Climbing Chicago Center
01:08PM 41.7694 -87.5156 100° East 293 337 9,800 3,360 Climbing Chicago Center
01:09PM 41.7675 -87.3967 91° East 316 364 12,700 2,460 Climbing Chicago Center
01:10PM 41.7681 -87.2628 90° East 348 400 15,000 2,220 Climbing Chicago Center
01:11PM 41.7500 -86.9705 90° East  Level FlightAware Approximate
01:11PM 41.7678 -87.0803 90° East 399 459 17,400  Level Chicago Center
01:12PM 41.7675 -86.9200 90° East 423 487 19,500 2,160 Climbing Chicago Center
01:13PM 41.7669 -86.7533 90° East 441 507 21,900 2,340 Climbing Chicago Center
01:14PM 41.7681 -86.5769 89° East 457 526 24,400 2,340 Climbing Chicago Center
01:15PM 41.7667 -86.3994 91° East 471 542 26,800 2,280 Climbing Chicago Center
01:16PM 41.7817 -86.2192 84° East 484 557 29,100 2,040 Climbing Chicago Center
01:17PM 41.8161 -86.0369 76° East 499 574 31,100 1,740 Climbing Chicago Center
01:19PM 41.8481 -85.8472 77° East 514 592 32,800 1,380 Climbing Chicago Center
01:20PM 41.8822 -85.6447 77° East 542 624 34,000 1,020 Climbing Chicago Center
01:21PM 41.9242 -85.3903 77° East 569 655 35,000 660 Climbing Chicago Center
01:21PM 41.9367 -85.3347 73° East 542 624 35,000  Level Cleveland Center
01:22PM 41.9539 -85.1153 84° East 564 649 35,000  Level Cleveland Center
01:23PM 41.9542 -84.8919 90° East 580 667 35,000  Level Cleveland Center
01:24PM 41.9517 -84.6683 91° East 591 680 35,000  Level Cleveland Center
01:25PM 41.9492 -84.4419 91° East 596 686 35,000  Level Cleveland Center
01:26PM 41.9425 -84.1986 92° East 596 686 35,000  Level Cleveland Center
01:27PM 41.9389 -83.9750 91° East 596 686 35,000  Level Cleveland Center
01:28PM 41.9369 -83.7542 91° East 596 686 35,000  Level Cleveland Center
01:29PM 41.9325 -83.5336 91° East 596 686 35,000  Level Cleveland Center
01:30PM 41.9317 -83.3103 90° East 596 686 35,000  Level Cleveland Center
01:31PM 41.9300 -83.1147 91° East 591 680 35,000  Level Cleveland Center
01:32PM 41.9283 -82.8914 91° East 591 680 35,000  Level Cleveland Center
01:33PM 41.9264 -82.6708 91° East 591 680 35,000  Level Cleveland Center
01:34PM 41.9258 -82.4531 90° East 591 680 35,000  Level Cleveland Center
01:35PM 41.9231 -82.2408 91° East 585 673 35,000  Level Cleveland Center
01:36PM 41.9178 -81.9978 92° East 585 673 35,000  Level Cleveland Center
01:37PM 41.9203 -81.7831 89° East 585 673 35,000  Level Cleveland Center
01:38PM 41.9433 -81.5686 82° East 580 667 35,000  Level Cleveland Center
01:39PM 41.9678 -81.3567 81° East 575 662 35,000  Level Cleveland Center
01:40PM 41.9897 -81.1447 82° East 580 667 35,000  Level Cleveland Center
01:41PM 42.0136 -80.9269 82° East 580 667 35,000  Level Cleveland Center
01:42PM 42.0328 -80.7369 82° East 580 667 35,000  Level Cleveland Center
01:43PM 42.0558 -80.5217 82° East 580 667 35,000  Level Cleveland Center
01:44PM 42.0764 -80.3061 83° East 580 667 35,000  Level Cleveland Center
01:45PM 42.0986 -80.0906 82° East 580 667 35,000  Level Cleveland Center
01:46PM 42.1183 -79.8750 83° East 580 667 35,000  Level Cleveland Center
01:47PM 42.1397 -79.6619 82° East 580 667 35,000  Level Cleveland Center
01:48PM 42.1608 -79.4458 82° East 580 667 35,000  Level Cleveland Center
01:49PM 42.1831 -79.2017 83° East 588 677 35,000  Level Cleveland Center
01:50PM 42.1642 -79.0172 98° East 577 664 35,000 -420 Level Cleveland Center
01:51PM 42.1133 -78.8169 109° East 561 646 34,200 -540 Descending Cleveland Center
01:52PM 42.0619 -78.6114 109° East 561 646 34,000 -120 Descending Cleveland Center
01:53PM 42.0083 -78.4119 110° East 571 657 34,000 -180 Level Cleveland Center
01:55PM 41.9017 -77.9942 109° East 562 647 33,500 -360 Descending New York Center
01:56PM 41.8556 -77.8247 110° East 529 609 33,000 -300 Descending New York Center
01:57PM 41.8147 -77.6672 109° East 485 558 33,000  Level New York Center
01:58PM 41.7739 -77.5072 109° East 463 533 33,000  Level New York Center
01:59PM 41.7289 -77.3442 110° East 457 526 33,000 -120 Level New York Center
02:00PM 41.6911 -77.1989 109° East 462 532 32,800 -840 Descending New York Center
02:01PM 41.6478 -77.0364 110° East 462 532 31,400 -1,500 Descending New York Center
02:02PM 41.6042 -76.8742 110° East 462 532 29,800 -1,140 Descending New York Center
02:03PM 41.5544 -76.7006 111° Southeast 462 532 29,200 -780 Descending New York Center
02:04PM 41.5142 -76.5503 110° East 445 512 28,300 -1,260 Descending New York Center
02:05PM 41.4772 -76.4083 109° East 425 489 26,800 -1,620 Descending New York Center
02:06PM 41.4356 -76.2750 113° Southeast 418 481 25,100 -1,440 Descending New York Center
02:07PM 41.3983 -76.1336 109° East 418 481 24,000 -1,200 Descending New York Center
02:08PM 41.3603 -76.0033 111° Southeast 397 457 22,800 -1,680 Descending New York Center
02:09PM 41.3225 -75.8678 110° East 392 451 20,700 -1,980 Descending New York Center
02:10PM 41.2864 -75.7353 110° East 382 440 18,800 -1,920 Descending New York Center
02:11PM 41.2497 -75.6167 112° Southeast 367 422 16,900 -2,040 Descending New York Center
02:12PM 41.2089 -75.4953 114° Southeast 350 403 14,800 -2,340 Descending New York Center
02:13PM 41.1678 -75.3739 114° Southeast 334 384 12,300 -2,580 Descending New York Center
02:14PM 41.1322 -75.2694 114° Southeast 327 376 9,600 -2,220 Descending New York Center
02:15PM 41.0986 -75.1681 114° Southeast 308 354 8,000 -900 Descending New York Center
02:16PM 41.0683 -75.0808 115° Southeast 297 342 7,900 -60 Descending New York Center
02:17PM 41.0347 -74.9769 113° Southeast 285 328 7,900  Level New York Center
02:18PM 41.0475 -74.9033 77° East 216 249 7,900 -420 Level New York Center
02:19PM 41.0881 -74.9417 325° Northwest 143 165 7,100 -540 Descending New York Center
02:20PM 41.0469 -74.9806 216° Southwest 146 168 6,900 -480 Descending New York Center
02:21PM 41.0042 -74.8981 124° Southeast 226 260 6,200 -480 Descending New York Center
02:22PM 41.0033 -74.8017 91° East 242 278 6,000 -720 Descending New York Center
02:23PM 41.0267 -74.7233 68° East 247 284 4,900 -1,320 Descending New York Center
02:24PM 41.0592 -74.6264 66° East 257 296 3,400 -960 Descending New York Center
02:25PM 41.0806 -74.5450 71° East 257 296 3,000 -240 Descending New York Center
02:26PM 41.1083 -74.4500 69° East 252 290 3,000  Level New York Center
02:27PM 41.0928 -74.3500 102° East 252 290 3,000  Level New York Center
02:27PM 41.0833 -74.3167 111° Southeast 251 289 3,000  Level New York TRACON
02:28PM 41.0833 -74.2333 90° East 267 307 3,000 1,860 Level New York TRACON
02:30PM 41.0544 -74.0978 106° East 257 296 8,000 -480 Climbing New York Center
02:30PM 41.0167 -74.0667 148° Southeast 223 257 2,000 -4,500 Descending New York TRACON
02:31PM 40.9667 -74.0500 166° South 214 246 2,000 -300 Level New York TRACON
02:32PM 40.9333 -74.0500 180° South 161 185 1,500 -720 Descending New York TRACON
02:33PM 40.8833 -74.0500 180° South 142 163 700 -840 Descending New York TRACON
02:35PM 40.8500 -74.0500 101° East  Level FlightAware Approximate
02:42PM 40.8501 -74.0608 101° East  Level Estimated